VLSKVLLB

Guest
Details From VLSK - SAVANNAKHET
To VLLB - LUANG PHABANG INTL
Flight Number -
Tags generated
Created
Modified
Stats Distance 277 nm / 513 km
Max Altitude 10,000 ft / 3,048 m
Waypoints 5
Social Downloads 0
Likes 0
Share VATSIM

Download

Looking for another format? Having issues loading an existing format? Contact us
Advertisement - Login to hide

Notes

Basic altitude profile: - Ascent Rate: 1000ft/min - Ascent Speed: 250kts - Cruise Altitude: 10000ft - Cruise Speed: 300kts - Descent Rate: 800ft/min - Descent Speed: 250kts

Route

VLSK TANGO W76 ALPHA VLLB

ID Type Via Altitude Latitude Longitude Leg Dist Tot Dist Heading (true) Name
O VLSK APT - 0 ft / 0 m 16.55659˚ 104.75953˚ - 0 nm - SAVANNAKHET
TANGO FIX - 10,000 ft / 3,048 m 17.42500˚ 104.90500˚ 52 nm 52 nm 9° / 9° -
KADIN FIX W76 (AWY-HI) 10,000 ft / 3,048 m 18.45000˚ 104.00000˚ 80 nm 133 nm 320° / 320° -
ALPHA FIX W76 (AWY-HI) 10,000 ft / 3,048 m 18.54467˚ 103.32294˚ 38 nm 172 nm 278° / 278° -
O VLLB APT - 0 ft / 0 m 19.89726˚ 102.16084˚ 104 nm 276 nm 321° / 321° LUANG PHABANG INTL

Altitude Profile

Advertisement - Login to hide

Weather


0- 5 10 15 20 25 30 35+ Temperature / ° C

Clouds and Precipitation
Forecast for 2017-12-16 06:00 UTC. Updated 12 minutes ago

Ground ~20,000 ft ~40,000 ft Winds

VLSK

Details ICAO VLSK (ZVK)
Name SAVANNAKHET
Region Laos
Timezone Asia/Vientiane (UTC+7.0)
Stats Elevation 509 ft / 155 m (AMSL)
Location 16.556594° 104.759531°
Runways 1
Magnetic Variation 0.938° W

METAR

VLSK 160500Z 09006KT 7000 SCT020 FEW100 28/17 Q1019 NOSIG

Decode

TAF

TAF VLSK 152300Z 1600/1624 06004KT 7000 SCT020 SCT100 TEMPO 1600/1603 4000 BR SCT020 BKN100

Decode

Departure Runways

ID Width Length Bearing (true) Bearing (mag) Surface Threshold Offset Overrun Length
04 125 ft / 38 m 5,371 ft / 1,637 m 39.17° 40.11° Concrete 0 ft / 0 m 825 ft / 251 m
22 125 ft / 38 m 5,371 ft / 1,637 m 219.17° 220.11° Concrete 0 ft / 0 m 657 ft / 200 m

VLLB

Details ICAO VLLB (LPQ)
Name LUANG PHABANG INTL
Region Laos
Timezone Asia/Vientiane (UTC+7.0)
Stats Elevation 955 ft / 291 m (AMSL)
Location 19.897255° 102.160844°
Runways 1
Magnetic Variation 0.994° W

METAR

VLLB 160500Z 02002KT 9999 SCT018 SCT060 BKN080 26/18 Q1020 NOSIG

Decode

TAF

TAF VLLB 152300Z 1600/1624 04004KT 8000 SCT020 SCT050 TEMPO 1600/1603 2000 BR OVC006

Decode

Destination Runways

ID Width Length Bearing (true) Bearing (mag) Surface Threshold Offset Overrun Length
06 148 ft / 45 m 7,224 ft / 2,202 m 61.07° 62.06° Asphalt 0 ft / 0 m 195 ft / 59 m
24 148 ft / 45 m 7,224 ft / 2,202 m 241.07° 242.06° Asphalt 0 ft / 0 m 195 ft / 59 m

Popular Alternatives